Time;durP1;ratioP1;P1;durP2;ratioP2;P2;SDS_P1;SDS_P2;PMS_P1;PMS_P2;Temp;Humidity;BMP_temperature;BMP_pressure;BME280_temperature;BME280_humidity;BME280_pressure;Samples;Min_cycle;Max_cycle;Signal;HPM_P1;HPM_P2
2022/12/02 00:01:43;;;;;;;10.07;6.72;;;;;;;9.57;70.82;100397.63;10296226;28;97482;-80
2022/12/02 00:06:48;;;;;;;7.63;5.57;;;;;;;9.63;70.09;100393.00;10300670;28;96644;-81
2022/12/02 00:11:52;;;;;;;9.55;5.57;;;;;;;9.78;69.17;100386.38;10324991;28;96555;-81
2022/12/02 00:16:56;;;;;;;8.27;5.22;;;;;;;9.77;68.55;100389.91;10302924;28;96816;-81
2022/12/02 00:22:00;;;;;;;8.65;5.50;;;;;;;9.74;68.83;100377.75;10334308;28;96622;-80
2022/12/02 00:27:04;;;;;;;7.10;5.22;;;;;;;9.77;67.75;100376.78;10343713;28;97036;-81
2022/12/02 00:32:07;;;;;;;8.05;5.07;;;;;;;9.82;67.48;100380.09;10343218;28;96630;-80
2022/12/02 00:37:12;;;;;;;9.20;5.10;;;;;;;9.80;67.47;100367.00;10341726;28;96855;-80
2022/12/02 00:42:15;;;;;;;8.70;5.30;;;;;;;9.73;68.19;100356.75;10343178;28;96732;-80
2022/12/02 00:47:18;;;;;;;5.78;4.40;;;;;;;9.72;67.81;100355.91;10343326;28;96772;-81
2022/12/02 00:52:23;;;;;;;6.72;4.88;;;;;;;9.75;67.50;100352.31;10342362;28;96617;-80
2022/12/02 00:57:26;;;;;;;7.35;5.40;;;;;;;9.67;67.91;100352.59;10343008;28;96722;-80
2022/12/02 01:02:29;;;;;;;5.55;4.03;;;;;;;9.65;67.21;100348.28;10342505;28;96526;-80
2022/12/02 01:07:34;;;;;;;5.88;4.15;;;;;;;9.73;66.63;100344.50;10342507;28;96634;-80
2022/12/02 01:12:38;;;;;;;7.53;4.32;;;;;;;9.75;66.36;100344.44;10342007;28;96698;-81
2022/12/02 01:17:41;;;;;;;4.90;4.20;;;;;;;9.71;66.00;100338.41;10342163;28;96788;-80
2022/12/02 01:22:45;;;;;;;5.50;3.58;;;;;;;9.71;65.86;100342.84;10341387;28;96764;-81
2022/12/02 01:27:49;;;;;;;6.15;3.13;;;;;;;9.69;65.86;100340.25;10327819;28;96992;-80
2022/12/02 01:32:52;;;;;;;5.40;3.65;;;;;;;9.67;65.46;100343.84;10300490;28;96686;-81
2022/12/02 01:37:57;;;;;;;4.35;3.50;;;;;;;9.65;65.33;100340.41;10300324;28;96755;-80
2022/12/02 01:43:00;;;;;;;4.47;3.65;;;;;;;9.65;64.64;100327.28;10317039;28;96504;-81
2022/12/02 01:48:05;;;;;;;5.13;4.05;;;;;;;9.62;64.73;100324.75;10301412;28;97390;-80
2022/12/02 01:53:10;;;;;;;5.35;3.50;;;;;;;9.69;64.71;100331.53;10299855;28;96756;-81
2022/12/02 01:58:13;;;;;;;5.18;3.40;;;;;;;9.67;64.56;100322.81;10299928;28;96601;-81
2022/12/02 02:03:17;;;;;;;5.75;3.83;;;;;;;9.60;64.84;100326.56;10300386;28;96902;-81
2022/12/02 02:08:22;;;;;;;4.97;3.70;;;;;;;9.60;64.81;100329.19;10329639;28;96619;-81
2022/12/02 02:13:26;;;;;;;5.53;3.60;;;;;;;9.58;64.78;100318.75;10318625;28;97159;-81
2022/12/02 02:18:29;;;;;;;5.07;3.55;;;;;;;9.54;65.05;100325.00;10298709;28;97410;-80
2022/12/02 02:23:34;;;;;;;6.15;4.03;;;;;;;9.50;64.96;100327.81;10299058;28;96486;-80
2022/12/02 02:28:37;;;;;;;3.75;3.08;;;;;;;9.48;65.30;100329.63;10298561;28;96863;-80
2022/12/02 02:33:41;;;;;;;4.57;3.38;;;;;;;9.49;65.03;100324.31;10298467;28;96623;-80
2022/12/02 02:38:48;;;;;;;4.35;3.25;;;;;;;9.47;65.29;100330.50;10299165;28;96729;-80
2022/12/02 02:43:51;;;;;;;5.22;3.05;;;;;;;9.45;65.16;100335.00;10322145;28;96699;-80
2022/12/02 02:48:54;;;;;;;3.90;3.00;;;;;;;9.42;65.61;100325.44;10339586;28;96778;-80
2022/12/02 02:53:59;;;;;;;3.90;2.88;;;;;;;9.38;65.75;100322.97;10317486;28;96718;-80
2022/12/02 02:59:02;;;;;;;5.10;3.17;;;;;;;9.39;65.45;100316.78;10297361;28;96910;-81
2022/12/02 03:04:10;;;;;;;4.38;3.05;;;;;;;9.29;65.51;100302.28;10298073;28;96847;-80
2022/12/02 03:09:18;;;;;;;3.72;3.20;;;;;;;9.27;65.74;100304.94;10302037;28;96715;-81
2022/12/02 03:14:22;;;;;;;4.45;3.40;;;;;;;9.26;65.06;100302.38;10297519;28;97066;-80
2022/12/02 03:19:27;;;;;;;6.53;3.07;;;;;;;9.25;65.30;100305.91;10297789;28;96695;-80
2022/12/02 03:24:33;;;;;;;3.53;2.88;;;;;;;9.21;65.27;100293.78;10297521;28;96631;-80
2022/12/02 03:29:37;;;;;;;5.13;3.13;;;;;;;9.26;65.02;100294.50;10332652;28;96682;-81
2022/12/02 03:34:42;;;;;;;3.97;2.75;;;;;;;9.18;65.01;100294.72;10338201;28;96873;-80
2022/12/02 03:39:46;;;;;;;4.30;3.30;;;;;;;9.17;65.07;100279.03;10338123;28;96620;-81
2022/12/02 03:44:50;;;;;;;4.57;3.20;;;;;;;9.11;65.07;100291.44;10322429;28;96763;-80
2022/12/02 03:49:54;;;;;;;6.97;3.42;;;;;;;9.04;65.49;100282.06;10303825;28;96676;-81
2022/12/02 03:54:59;;;;;;;5.15;3.10;;;;;;;9.02;65.26;100272.50;10303854;28;96686;-80
2022/12/02 04:00:04;;;;;;;3.90;2.85;;;;;;;8.99;65.46;100276.09;10302432;28;96893;-81
2022/12/02 04:05:08;;;;;;;3.80;2.83;;;;;;;9.01;65.32;100266.41;10303584;28;96660;-80
2022/12/02 04:10:12;;;;;;;4.13;2.97;;;;;;;8.97;65.34;100264.78;10308777;28;97585;-80
2022/12/02 04:15:15;;;;;;;3.97;2.63;;;;;;;8.99;65.15;100264.72;10322113;28;96703;-80
2022/12/02 04:20:19;;;;;;;4.43;2.88;;;;;;;8.94;65.04;100282.41;10336681;28;96683;-81
2022/12/02 04:25:23;;;;;;;4.35;3.00;;;;;;;8.87;65.59;100268.63;10344123;28;96918;-81
2022/12/02 04:30:27;;;;;;;4.50;3.07;;;;;;;8.81;65.73;100276.69;10338505;28;96817;-80
2022/12/02 04:35:30;;;;;;;6.13;2.65;;;;;;;8.81;65.30;100271.44;10338499;28;96724;-80
2022/12/02 04:40:34;;;;;;;4.03;2.97;;;;;;;8.74;65.39;100275.16;10338695;28;96762;-81
2022/12/02 04:45:38;;;;;;;3.67;2.63;;;;;;;8.71;65.80;100272.63;10338214;28;96805;-81
2022/12/02 04:50:41;;;;;;;3.50;3.13;;;;;;;8.71;65.45;100272.63;10336340;28;97592;-80
2022/12/02 04:55:46;;;;;;;3.53;2.85;;;;;;;8.68;65.87;100261.38;10338177;28;96998;-80
2022/12/02 05:00:49;;;;;;;5.20;3.30;;;;;;;8.65;65.70;100264.94;10337143;28;96737;-81
2022/12/02 05:05:52;;;;;;;3.88;2.92;;;;;;;8.64;65.79;100267.63;10337331;28;96646;-80
2022/12/02 05:10:57;;;;;;;3.35;2.60;;;;;;;8.58;65.58;100255.59;10306785;28;96863;-81
2022/12/02 05:16:00;;;;;;;6.83;3.03;;;;;;;8.59;65.74;100251.19;10295887;28;96868;-81
2022/12/02 05:21:04;;;;;;;3.58;2.72;;;;;;;8.57;65.43;100242.50;10295321;28;96882;-80
2022/12/02 05:26:09;;;;;;;3.80;2.72;;;;;;;8.57;65.31;100253.84;10296696;28;96739;-81
2022/12/02 05:31:13;;;;;;;4.40;2.80;;;;;;;8.58;65.29;100244.22;10295209;28;96726;-81
2022/12/02 05:36:16;;;;;;;3.88;2.95;;;;;;;8.56;65.41;100246.91;10295477;28;96713;-80
2022/12/02 05:41:21;;;;;;;3.80;2.78;;;;;;;8.52;65.28;100233.91;10294536;28;97367;-80
2022/12/02 05:46:24;;;;;;;3.00;2.55;;;;;;;8.47;65.54;100252.44;10324905;28;96585;-80
2022/12/02 05:51:27;;;;;;;4.82;3.55;;;;;;;8.44;65.48;100234.19;10336002;28;97053;-80
2022/12/02 05:56:32;;;;;;;4.10;2.80;;;;;;;8.41;65.59;100249.16;10335894;28;97218;-80
2022/12/02 06:01:38;;;;;;;3.90;2.27;;;;;;;8.38;65.59;100226.50;10307487;28;96900;-80
2022/12/02 06:06:42;;;;;;;6.10;2.55;;;;;;;8.37;65.42;100234.41;10293924;28;96678;-81
2022/12/02 06:11:47;;;;;;;4.45;2.58;;;;;;;8.35;65.77;100244.06;10294210;28;96583;-80
2022/12/02 06:16:55;;;;;;;3.40;2.80;;;;;;;8.35;65.15;100236.22;10307731;28;96634;-80
2022/12/02 06:22:01;;;;;;;4.25;2.83;;;;;;;8.31;65.51;100238.06;10335121;28;96836;-80
2022/12/02 06:27:06;;;;;;;5.15;2.88;;;;;;;8.35;64.98;100239.69;10335297;28;97464;-80
2022/12/02 06:32:18;;;;;;;5.03;2.80;;;;;;;8.36;65.23;100232.69;10333437;28;96905;-81
2022/12/02 06:37:23;;;;;;;2.97;2.38;;;;;;;8.30;65.12;100244.22;10293613;28;97146;-80
2022/12/02 06:42:31;;;;;;;3.45;2.47;;;;;;;8.22;65.32;100243.59;10293330;28;96930;-81
2022/12/02 06:47:59;;;;;;;4.20;2.92;;;;;;;8.21;65.49;100238.41;10293846;28;96934;-80
2022/12/02 06:53:31;;;;;;;3.13;2.42;;;;;;;8.19;64.62;100238.44;10324217;28;96741;-80
2022/12/02 06:58:40;;;;;;;3.85;2.40;;;;;;;8.18;65.35;100236.75;10333839;28;97329;-80
2022/12/02 07:03:47;;;;;;;3.58;2.70;;;;;;;8.15;64.93;100234.19;10333682;28;97043;-80
2022/12/02 07:08:50;;;;;;;5.68;2.90;;;;;;;8.15;65.23;100231.56;10333812;28;96775;-80
2022/12/02 07:13:55;;;;;;;3.67;2.50;;;;;;;8.10;65.65;100237.88;10333217;28;96609;-80
2022/12/02 07:18:59;;;;;;;3.60;2.90;;;;;;;8.08;65.60;100242.31;10294918;28;96604;-81
2022/12/02 07:24:03;;;;;;;3.30;2.63;;;;;;;8.07;65.69;100246.69;10297469;28;96675;-80
2022/12/02 07:29:13;;;;;;;4.32;2.90;;;;;;;8.11;64.79;100260.53;10333103;28;96874;-80
2022/12/02 07:34:18;;;;;;;4.40;2.60;;;;;;;8.12;64.85;100260.50;10332907;28;96583;-80
2022/12/02 07:39:21;;;;;;;3.75;2.65;;;;;;;8.06;65.25;100251.97;10332903;28;97141;-80
2022/12/02 07:44:26;;;;;;;3.30;2.60;;;;;;;8.11;64.91;100253.56;10331645;28;97198;-80
2022/12/02 07:49:29;;;;;;;3.80;2.93;;;;;;;8.10;64.88;100256.22;10332576;28;96641;-80
2022/12/02 07:54:33;;;;;;;4.28;3.08;;;;;;;8.10;64.36;100262.31;10332515;28;96686;-80
2022/12/02 07:59:37;;;;;;;3.67;2.42;;;;;;;8.03;64.91;100263.38;10331689;28;96534;-80
2022/12/02 08:04:41;;;;;;;4.97;2.40;;;;;;;8.09;64.28;100255.34;10332255;28;96748;-80
2022/12/02 08:09:44;;;;;;;5.32;2.63;;;;;;;8.10;64.01;100259.69;10331559;28;96694;-81
2022/12/02 08:14:49;;;;;;;7.25;3.65;;;;;;;8.06;64.55;100262.44;10328828;28;96695;-80
2022/12/02 08:19:52;;;;;;;4.00;2.50;;;;;;;8.05;64.81;100268.59;10331938;28;96676;-80
2022/12/02 08:24:55;;;;;;;4.28;2.58;;;;;;;8.09;64.26;100263.22;10331797;28;96729;-81
2022/12/02 08:30:00;;;;;;;4.35;2.90;;;;;;;8.06;64.32;100267.69;10335366;28;97205;-80
2022/12/02 08:35:03;;;;;;;5.77;3.03;;;;;;;8.12;64.56;100270.97;10306724;28;96728;-80
2022/12/02 08:40:08;;;;;;;6.22;3.55;;;;;;;8.32;63.40;100263.41;10297105;28;96576;-81
2022/12/02 08:45:12;;;;;;;5.18;3.25;;;;;;;8.41;63.38;100273.59;10300638;28;96661;-81
2022/12/02 08:50:16;;;;;;;4.63;3.10;;;;;;;8.45;63.01;100272.59;10322053;28;96739;-81
2022/12/02 08:55:19;;;;;;;3.55;2.90;;;;;;;8.60;62.66;100261.63;10296584;28;97459;-80
2022/12/02 09:00:24;;;;;;;3.75;2.75;;;;;;;8.69;62.54;100256.09;10296064;28;96950;-80
2022/12/02 09:05:27;;;;;;;5.25;3.03;;;;;;;8.78;61.93;100263.66;10296119;28;96580;-81
2022/12/02 09:10:31;;;;;;;4.20;2.72;;;;;;;8.89;61.80;100272.06;10296453;28;97017;-81
2022/12/02 09:15:35;;;;;;;4.45;2.90;;;;;;;8.89;61.27;100272.06;10295866;28;96658;-81
2022/12/02 09:20:39;;;;;;;4.20;2.87;;;;;;;8.98;61.12;100282.22;10295505;28;97137;-81
2022/12/02 09:25:42;;;;;;;4.30;3.03;;;;;;;9.03;61.00;100274.22;10324178;28;96634;-80
2022/12/02 09:30:46;;;;;;;4.38;3.20;;;;;;;9.09;61.06;100281.88;10336780;28;97144;-81
2022/12/02 09:35:50;;;;;;;4.20;2.80;;;;;;;9.15;60.50;100279.91;10336221;28;97001;-81
2022/12/02 09:40:53;;;;;;;5.30;3.13;;;;;;;9.14;60.18;100277.34;10335656;28;96788;-81
2022/12/02 09:45:58;;;;;;;4.78;3.38;;;;;;;9.18;60.34;100280.72;10336254;28;96736;-81
2022/12/02 09:51:02;;;;;;;6.90;3.28;;;;;;;9.27;59.98;100283.06;10336075;28;96823;-81
2022/12/02 09:56:10;;;;;;;5.80;3.17;;;;;;;9.23;59.58;100274.41;10335336;28;96833;-81
2022/12/02 10:01:15;;;;;;;5.18;3.38;;;;;;;9.35;59.85;100279.28;10334976;28;98105;-81
2022/12/02 10:06:24;;;;;;;4.57;2.80;;;;;;;9.41;59.10;100271.22;10335721;28;96548;-81
2022/12/02 10:11:31;;;;;;;6.57;3.30;;;;;;;9.37;59.23;100271.34;10335321;28;96724;-81
2022/12/02 10:16:37;;;;;;;4.53;2.88;;;;;;;9.46;59.14;100276.28;10328935;28;97313;-81
2022/12/02 10:21:41;;;;;;;4.35;3.15;;;;;;;9.47;59.23;100272.72;10294108;28;96693;-81
2022/12/02 10:26:49;;;;;;;4.90;2.70;;;;;;;9.57;58.67;100263.66;10293849;28;96891;-81
2022/12/02 10:31:59;;;;;;;5.63;3.08;;;;;;;9.65;58.50;100258.97;10307189;28;96729;-81
2022/12/02 10:37:17;;;;;;;5.10;3.28;;;;;;;9.77;58.84;100269.91;10334636;28;96702;-81
2022/12/02 10:42:21;;;;;;;6.55;3.40;;;;;;;9.69;58.53;100257.94;10334394;28;96681;-81
2022/12/02 10:47:25;;;;;;;4.70;3.20;;;;;;;9.84;58.26;100250.38;10332578;28;96781;-81
2022/12/02 10:52:34;;;;;;;4.03;2.60;;;;;;;9.82;57.41;100246.06;10334018;28;96746;-81
2022/12/02 10:57:37;;;;;;;3.55;2.80;;;;;;;9.82;57.07;100244.31;10334116;28;96578;-81
2022/12/02 11:02:45;;;;;;;5.10;2.88;;;;;;;9.86;57.34;100238.03;10333572;28;97255;-81
2022/12/02 11:07:57;;;;;;;4.22;3.08;;;;;;;10.02;57.61;100240.94;10332739;28;96647;-81
2022/12/02 11:13:04;;;;;;;4.60;3.00;;;;;;;9.94;57.15;100227.22;10333265;28;96888;-81
2022/12/02 11:18:11;;;;;;;4.28;3.10;;;;;;;10.01;57.23;100241.84;10315449;28;97752;-81
2022/12/02 11:23:20;;;;;;;4.15;3.10;;;;;;;9.97;56.16;100227.09;10293289;28;97328;-81
2022/12/02 11:28:44;;;;;;;4.50;3.17;;;;;;;10.02;56.63;100223.38;10291969;28;96711;-80
2022/12/02 11:34:04;;;;;;;4.32;3.13;;;;;;;10.06;56.60;100197.84;10291786;28;96730;-80
2022/12/02 11:39:11;;;;;;;4.00;2.88;;;;;;;10.18;56.85;100197.38;10291474;28;96838;-81
2022/12/02 11:44:25;;;;;;;4.85;3.53;;;;;;;10.20;56.42;100191.16;10291355;28;96779;-81
2022/12/02 11:49:33;;;;;;;4.95;3.60;;;;;;;10.22;56.50;100184.06;10315695;28;96726;-81
2022/12/02 11:54:38;;;;;;;4.47;3.13;;;;;;;10.18;56.80;100168.44;10332362;28;96715;-81
2022/12/02 11:59:41;;;;;;;;;;;;;;;10.19;56.80;100168.38;10295427;28;97875;-81
2022/12/02 12:04:46;;;;;;;4.60;3.30;;;;;;;10.33;56.20;100156.47;10294959;28;97067;-81
2022/12/02 12:09:56;;;;;;;;;;;;;;;10.35;57.10;100146.75;10298526;28;96802;-80
2022/12/02 12:15:02;;;;;;;4.82;3.40;;;;;;;10.29;57.05;100134.69;10299693;28;96627;-81
2022/12/02 12:20:38;;;;;;;8.40;3.58;;;;;;;10.40;57.02;100114.09;10297580;28;97001;-81
2022/12/02 12:25:44;;;;;;;4.85;3.63;;;;;;;10.43;56.63;100110.47;10297509;28;96683;-81
2022/12/02 12:30:47;;;;;;;5.43;3.90;;;;;;;10.60;56.87;100107.97;10309110;28;96923;-81
2022/12/02 12:35:53;;;;;;;4.25;3.25;;;;;;;10.55;56.71;100092.41;10338584;28;96675;-81
2022/12/02 12:40:58;;;;;;;4.60;3.30;;;;;;;10.65;56.71;100077.06;10338322;28;96635;-81
2022/12/02 12:46:01;;;;;;;5.22;3.78;;;;;;;10.70;56.54;100064.56;10338411;28;96825;-81
2022/12/02 12:51:04;;;;;;;4.65;3.42;;;;;;;10.75;56.37;100058.19;10334603;28;96779;-81
2022/12/02 12:56:09;;;;;;;5.75;3.80;;;;;;;10.80;55.87;100044.84;10338093;28;96614;-81
2022/12/02 13:01:12;;;;;;;4.05;3.45;;;;;;;10.92;56.61;100034.59;10337068;28;97684;-81
2022/12/02 13:06:16;;;;;;;5.60;3.78;;;;;;;10.85;55.24;100027.91;10313546;28;96838;-81
2022/12/02 13:11:20;;;;;;;5.22;3.90;;;;;;;11.09;56.09;100023.38;10296392;28;96592;-81
2022/12/02 13:16:24;;;;;;;4.50;3.25;;;;;;;12.28;52.98;100014.94;10295064;28;96712;-81
2022/12/02 13:21:27;;;;;;;5.30;3.30;;;;;;;13.61;49.87;100006.03;10310306;28;96705;-81
2022/12/02 13:26:32;;;;;;;5.00;3.33;;;;;;;14.05;48.19;99990.31;10295051;28;96725;-82
2022/12/02 13:31:35;;;;;;;5.03;3.42;;;;;;;14.86;46.36;99974.78;10295560;28;97054;-81
2022/12/02 13:36:38;;;;;;;4.32;3.53;;;;;;;14.92;46.23;99978.88;10294883;28;97284;-82
2022/12/02 13:41:43;;;;;;;5.03;3.63;;;;;;;14.39;45.96;99963.56;10296294;28;97288;-82
2022/12/02 13:46:46;;;;;;;4.30;3.40;;;;;;;13.53;48.79;99968.59;10295211;28;96776;-81
2022/12/02 13:51:50;;;;;;;4.15;3.40;;;;;;;12.80;49.11;99969.13;10320930;28;96911;-81
2022/12/02 13:56:54;;;;;;;4.78;3.70;;;;;;;12.48;50.48;99964.63;10335903;28;96633;-81
2022/12/02 14:01:58;;;;;;;6.55;3.67;;;;;;;12.08;51.47;99960.53;10334961;28;96768;-81
2022/12/02 14:07:01;;;;;;;5.25;3.70;;;;;;;11.89;52.47;99945.72;10335424;28;96712;-81
2022/12/02 14:12:06;;;;;;;5.72;3.80;;;;;;;11.79;52.15;99945.31;10293589;28;96745;-81
2022/12/02 14:17:09;;;;;;;5.15;3.50;;;;;;;11.88;52.64;99939.59;10294113;28;96882;-81
2022/12/02 14:22:12;;;;;;;4.75;3.25;;;;;;;11.89;52.67;99945.72;10293760;28;96851;-81
2022/12/02 14:27:17;;;;;;;5.95;3.85;;;;;;;11.93;52.77;99934.94;10293227;28;96727;-81
2022/12/02 14:32:20;;;;;;;5.38;3.35;;;;;;;12.29;51.86;99925.16;10293890;28;96830;-81
2022/12/02 14:37:24;;;;;;;4.70;3.15;;;;;;;13.29;49.27;99925.88;10293143;28;96657;-81
2022/12/02 14:42:28;;;;;;;4.57;3.40;;;;;;;14.34;47.26;99925.94;10293492;28;96588;-82
2022/12/02 14:47:31;;;;;;;4.22;3.00;;;;;;;15.09;46.06;99917.72;10294795;28;96866;-82
2022/12/02 14:52:34;;;;;;;5.72;3.00;;;;;;;14.67;46.03;99908.00;10325009;28;96655;-82
2022/12/02 14:57:39;;;;;;;5.22;2.83;;;;;;;14.70;45.64;99906.03;10333989;28;96685;-82
2022/12/02 15:02:42;;;;;;;5.13;3.25;;;;;;;14.66;45.68;99906.31;10328190;28;97755;-82
2022/12/02 15:07:46;;;;;;;5.25;3.80;;;;;;;14.66;45.53;99907.16;10292517;28;96668;-82
2022/12/02 15:12:51;;;;;;;;;;;;;;;14.48;45.69;99903.00;10292782;28;96594;-81
2022/12/02 15:17:55;;;;;;;4.78;3.17;;;;;;;14.74;45.50;99904.03;10292539;28;97188;-81
2022/12/02 15:22:58;;;;;;;4.30;3.45;;;;;;;14.32;46.34;99909.28;10292415;28;96747;-82
2022/12/02 15:28:02;;;;;;;5.32;3.63;;;;;;;14.79;45.90;99905.47;10292678;28;97037;-81
2022/12/02 15:33:05;;;;;;;4.65;3.47;;;;;;;14.58;46.07;99906.78;10291744;28;96811;-81
2022/12/02 15:38:09;;;;;;;4.35;3.50;;;;;;;14.66;46.01;99898.38;10292157;28;96627;-81
2022/12/02 15:43:13;;;;;;;4.72;3.55;;;;;;;14.43;46.02;99898.91;10291937;28;97099;-81
2022/12/02 15:48:16;;;;;;;4.15;3.28;;;;;;;13.71;47.83;99901.44;10291799;28;96818;-81
2022/12/02 15:53:19;;;;;;;5.45;3.70;;;;;;;13.58;48.23;99903.97;10291393;28;96698;-81
2022/12/02 15:58:24;;;;;;;4.93;3.55;;;;;;;13.54;48.32;99909.50;10332389;28;96747;-81
2022/12/02 16:03:27;;;;;;;4.10;3.08;;;;;;;13.08;49.36;99916.53;10331895;28;96631;-81
2022/12/02 16:08:32;;;;;;;6.75;3.83;;;;;;;12.48;51.43;99903.94;10332191;28;96635;-81
2022/12/02 16:13:36;;;;;;;5.30;3.50;;;;;;;12.10;52.25;99911.22;10331294;28;96664;-81
2022/12/02 16:18:40;;;;;;;5.03;3.45;;;;;;;11.90;53.04;99913.16;10332124;28;96906;-81
2022/12/02 16:23:43;;;;;;;5.85;3.67;;;;;;;11.64;54.44;99909.19;10294122;28;96821;-81
2022/12/02 16:28:47;;;;;;;5.03;3.92;;;;;;;11.51;54.18;99904.59;10303795;28;97701;-81
2022/12/02 16:33:50;;;;;;;4.87;3.83;;;;;;;11.38;54.82;99901.69;10331729;28;96896;-81
2022/12/02 16:38:54;;;;;;;6.68;3.67;;;;;;;11.25;55.47;99905.88;10331395;28;97133;-81
2022/12/02 16:43:58;;;;;;;5.53;3.88;;;;;;;11.15;56.29;99905.44;10330357;28;96581;-81
2022/12/02 16:49:01;;;;;;;6.03;3.43;;;;;;;11.10;56.59;99906.56;10331326;28;96879;-81
2022/12/02 16:54:05;;;;;;;7.13;4.65;;;;;;;11.02;57.02;99904.28;10337851;28;96587;-81
2022/12/02 16:59:09;;;;;;;5.60;4.03;;;;;;;10.96;57.01;99903.69;10337147;28;96763;-81
2022/12/02 17:04:12;;;;;;;7.33;4.30;;;;;;;10.90;57.60;99894.31;10337309;28;96974;-81
2022/12/02 17:09:16;;;;;;;7.63;5.15;;;;;;;10.83;57.19;99902.56;10337070;28;96797;-81
2022/12/02 17:14:20;;;;;;;9.25;5.18;;;;;;;10.77;58.39;99897.56;10337447;28;96595;-81
2022/12/02 17:19:23;;;;;;;7.17;5.40;;;;;;;10.69;58.74;99900.56;10329724;28;97209;-81
2022/12/02 17:24:27;;;;;;;8.98;6.00;;;;;;;10.62;58.44;99899.16;10337147;28;96637;-81
2022/12/02 17:29:31;;;;;;;11.57;7.22;;;;;;;10.53;58.53;99903.94;10336903;28;96686;-81
2022/12/02 17:34:34;;;;;;;9.60;5.90;;;;;;;10.46;59.15;99907.78;10335565;28;96947;-81
2022/12/02 17:39:37;;;;;;;8.95;5.90;;;;;;;10.41;59.50;99918.50;10299966;28;96686;-80
2022/12/02 17:44:42;;;;;;;8.52;6.25;;;;;;;10.37;59.73;99908.22;10294849;28;96786;-81
2022/12/02 17:49:45;;;;;;;10.00;6.83;;;;;;;10.28;60.26;99912.09;10295185;28;96866;-80
2022/12/02 17:54:48;;;;;;;10.68;6.38;;;;;;;10.25;59.72;99907.81;10307098;28;96735;-80
2022/12/02 17:59:54;;;;;;;12.23;7.30;;;;;;;10.17;60.52;99917.81;10293935;28;96695;-81
2022/12/02 18:04:59;;;;;;;11.50;9.03;;;;;;;10.04;61.42;99918.38;10294007;28;96906;-81
2022/12/02 18:10:02;;;;;;;16.10;10.10;;;;;;;9.97;61.65;99920.44;10295720;28;96627;-81
2022/12/02 18:15:08;;;;;;;13.85;9.40;;;;;;;9.92;61.86;99918.91;10294309;28;96589;-81
2022/12/02 18:20:12;;;;;;;14.32;10.68;;;;;;;9.88;62.13;99922.59;10294262;28;97040;-81
2022/12/02 18:25:15;;;;;;;15.10;10.48;;;;;;;9.83;62.26;99921.94;10293259;28;96968;-81
2022/12/02 18:30:20;;;;;;;10.60;8.55;;;;;;;9.74;62.99;99919.69;10326822;28;96626;-81
2022/12/02 18:35:24;;;;;;;13.68;9.43;;;;;;;9.72;63.06;99913.66;10334907;28;96698;-81
2022/12/02 18:40:28;;;;;;;13.50;8.98;;;;;;;9.66;63.34;99917.38;10334661;28;96778;-81
2022/12/02 18:45:32;;;;;;;13.43;8.85;;;;;;;9.60;63.44;99911.53;10333444;28;96757;-81
2022/12/02 18:50:35;;;;;;;13.47;9.07;;;;;;;9.56;63.52;99900.28;10334234;28;96841;-81
2022/12/02 18:55:40;;;;;;;12.50;9.35;;;;;;;9.54;64.29;99899.50;10293076;28;97046;-81
2022/12/02 19:00:45;;;;;;;11.35;8.43;;;;;;;9.46;64.43;99898.09;10297828;28;96932;-81
2022/12/02 19:05:48;;;;;;;12.27;8.63;;;;;;;9.43;64.47;99903.47;10333813;28;96646;-81
2022/12/02 19:10:52;;;;;;;13.63;8.43;;;;;;;9.40;64.81;99914.13;10333611;28;96560;-81
2022/12/02 19:15:57;;;;;;;10.32;7.72;;;;;;;9.36;63.89;99917.78;10332683;28;96649;-81
2022/12/02 19:21:01;;;;;;;12.20;8.23;;;;;;;9.34;64.62;99916.97;10332095;28;96625;-81
2022/12/02 19:26:04;;;;;;;10.95;7.60;;;;;;;9.32;64.80;99910.94;10294217;28;97718;-80
2022/12/02 19:31:09;;;;;;;11.73;7.97;;;;;;;9.28;65.12;99902.31;10291867;28;96769;-80
2022/12/02 19:36:12;;;;;;;9.40;7.37;;;;;;;9.26;65.14;99908.56;10308444;28;96696;-81
2022/12/02 19:41:15;;;;;;;14.10;7.82;;;;;;;9.21;65.39;99910.50;10332568;28;96699;-81
2022/12/02 19:46:20;;;;;;;10.20;7.22;;;;;;;9.20;65.58;99908.75;10333023;28;97040;-80
2022/12/02 19:51:23;;;;;;;11.02;7.85;;;;;;;9.18;65.56;99915.84;10332035;28;96552;-80
2022/12/02 19:56:26;;;;;;;12.05;7.60;;;;;;;9.14;65.73;99907.22;10291667;28;96968;-81
2022/12/02 20:01:31;;;;;;;10.38;7.20;;;;;;;9.12;65.90;99904.66;10291398;28;96622;-81
2022/12/02 20:06:41;;;;;;;10.48;7.88;;;;;;;9.12;65.99;99901.22;10290201;28;96544;-81
2022/12/02 20:11:44;;;;;;;11.35;7.90;;;;;;;9.03;66.47;99904.19;10295091;28;96599;-80
2022/12/02 20:16:49;;;;;;;10.75;7.60;;;;;;;9.05;66.68;99903.19;10291084;28;96711;-81
2022/12/02 20:21:52;;;;;;;11.02;7.95;;;;;;;8.99;66.92;99900.81;10291195;28;97175;-80
2022/12/02 20:26:55;;;;;;;12.63;6.90;;;;;;;9.02;66.46;99892.81;10296077;28;96735;-81
2022/12/02 20:32:00;;;;;;;10.00;7.55;;;;;;;8.98;66.90;99893.00;10297654;28;96837;-81
2022/12/02 20:37:03;;;;;;;12.13;7.90;;;;;;;8.91;66.89;99887.13;10297526;28;96686;-81
2022/12/02 20:42:06;;;;;;;12.60;7.68;;;;;;;8.92;67.14;99888.84;10297762;28;96795;-81
2022/12/02 20:47:11;;;;;;;11.10;7.40;;;;;;;8.89;67.14;99888.13;10337504;28;96600;-81
2022/12/02 20:52:15;;;;;;;12.97;7.37;;;;;;;8.91;67.09;99892.38;10338342;28;96758;-81
2022/12/02 20:57:18;;;;;;;11.68;7.82;;;;;;;8.88;67.34;99892.50;10336927;28;96647;-81
2022/12/02 21:02:23;;;;;;;11.38;7.30;;;;;;;8.86;67.40;99896.94;10336635;28;96833;-81
2022/12/02 21:07:26;;;;;;;10.97;8.40;;;;;;;8.84;67.22;99892.69;10337509;28;97161;-81
2022/12/02 21:12:29;;;;;;;10.38;7.60;;;;;;;8.83;67.55;99899.69;10337280;28;96597;-81
2022/12/02 21:17:34;;;;;;;9.48;6.70;;;;;;;8.87;67.22;99896.03;10336331;28;96703;-81
2022/12/02 21:22:37;;;;;;;10.65;7.20;;;;;;;8.91;67.13;99892.38;10337143;28;96866;-81
2022/12/02 21:27:40;;;;;;;10.40;7.25;;;;;;;8.94;66.93;99894.03;10336665;28;96697;-80
2022/12/02 21:32:45;;;;;;;10.63;7.20;;;;;;;8.93;66.97;99901.03;10337600;28;96875;-80
2022/12/02 21:37:48;;;;;;;10.87;6.93;;;;;;;8.94;66.94;99901.91;10297469;28;96850;-80
2022/12/02 21:42:51;;;;;;;9.60;6.80;;;;;;;8.94;66.95;99892.28;10295191;28;96816;-81
2022/12/02 21:47:56;;;;;;;10.63;6.88;;;;;;;8.88;67.11;99903.00;10294367;28;96861;-81
2022/12/02 21:52:59;;;;;;;10.27;7.20;;;;;;;8.81;67.33;99901.50;10299517;28;97562;-81
2022/12/02 21:58:03;;;;;;;11.02;7.22;;;;;;;8.83;67.06;99894.44;10336225;28;96581;-81
2022/12/02 22:03:07;;;;;;;10.73;8.00;;;;;;;8.82;67.16;99886.63;10335301;28;96662;-80
2022/12/02 22:08:16;;;;;;;10.38;7.35;;;;;;;8.75;67.17;99887.78;10326729;28;96717;-80
2022/12/02 22:13:19;;;;;;;10.40;7.22;;;;;;;8.71;67.37;99873.94;10293859;28;96757;-81
2022/12/02 22:18:24;;;;;;;12.23;7.55;;;;;;;8.69;67.52;99877.50;10294237;28;97286;-81
2022/12/02 22:23:27;;;;;;;9.53;6.83;;;;;;;8.67;67.53;99890.69;10295200;28;97125;-80
2022/12/02 22:28:30;;;;;;;11.05;7.38;;;;;;;8.67;67.37;99877.56;10328705;28;96745;-81
2022/12/02 22:33:35;;;;;;;10.82;6.53;;;;;;;8.67;67.19;99885.44;10335040;28;96541;-80
2022/12/02 22:38:38;;;;;;;11.23;7.03;;;;;;;8.70;67.22;99893.22;10333554;28;96645;-80
2022/12/02 22:43:41;;;;;;;11.55;7.35;;;;;;;8.62;67.60;99889.16;10333567;28;97099;-80
2022/12/02 22:48:46;;;;;;;9.95;7.22;;;;;;;8.64;67.40;99888.19;10333813;28;96691;-80
2022/12/02 22:53:49;;;;;;;10.10;7.37;;;;;;;8.58;67.55;99884.94;10334197;28;96593;-81
2022/12/02 22:58:52;;;;;;;13.05;7.30;;;;;;;8.54;67.48;99878.97;10328296;28;96684;-80
2022/12/02 23:03:57;;;;;;;8.55;6.53;;;;;;;8.56;67.46;99887.63;10292843;28;96512;-80
2022/12/02 23:09:00;;;;;;;11.68;7.93;;;;;;;8.55;67.88;99885.06;10299670;28;96700;-81
2022/12/02 23:14:04;;;;;;;10.50;7.53;;;;;;;8.53;67.39;99874.59;10334390;28;96713;-80
2022/12/02 23:19:08;;;;;;;12.38;7.93;;;;;;;8.50;67.75;99877.34;10301251;28;96686;-81
2022/12/02 23:24:11;;;;;;;11.50;7.67;;;;;;;8.46;67.78;99878.41;10292318;28;96836;-80
2022/12/02 23:29:14;;;;;;;12.35;8.02;;;;;;;8.46;67.58;99882.78;10291052;28;96623;-80
2022/12/02 23:34:19;;;;;;;11.35;7.45;;;;;;;8.43;67.92;99875.03;10292627;28;97088;-80